sensor_id;sensor_type;location;lat;lon;timestamp;pressure;altitude;pressure_sealevel;temperature
78225;BMP280;67498;53.650;10.090;2023-09-12T00:00:15;101153.25;;;20.48
78225;BMP280;67498;53.650;10.090;2023-09-12T00:02:40;101147.09;;;20.42
78225;BMP280;67498;53.650;10.090;2023-09-12T00:05:06;101152.59;;;20.38
78225;BMP280;67498;53.650;10.090;2023-09-12T00:07:31;101170.28;;;20.41
78225;BMP280;67498;53.650;10.090;2023-09-12T00:09:56;101175.28;;;20.39
78225;BMP280;67498;53.650;10.090;2023-09-12T00:12:23;101175.59;;;20.41
78225;BMP280;67498;53.650;10.090;2023-09-12T00:14:49;101175.75;;;20.38
78225;BMP280;67498;53.650;10.090;2023-09-12T00:17:14;101185.16;;;20.39
78225;BMP280;67498;53.650;10.090;2023-09-12T00:19:40;101179.03;;;20.33
78225;BMP280;67498;53.650;10.090;2023-09-12T00:22:05;101174.19;;;20.31
78225;BMP280;67498;53.650;10.090;2023-09-12T00:24:30;101173.47;;;20.31
78225;BMP280;67498;53.650;10.090;2023-09-12T00:26:55;101181.94;;;20.35
78225;BMP280;67498;53.650;10.090;2023-09-12T00:29:21;101172.25;;;20.32
78225;BMP280;67498;53.650;10.090;2023-09-12T00:31:46;101163.28;;;20.29
78225;BMP280;67498;53.650;10.090;2023-09-12T00:34:16;101169.03;;;20.27
78225;BMP280;67498;53.650;10.090;2023-09-12T00:36:41;101185.06;;;20.33
78225;BMP280;67498;53.650;10.090;2023-09-12T00:39:06;101177.28;;;20.30
78225;BMP280;67498;53.650;10.090;2023-09-12T00:41:32;101180.06;;;20.35
78225;BMP280;67498;53.650;10.090;2023-09-12T00:43:57;101176.38;;;20.33
78225;BMP280;67498;53.650;10.090;2023-09-12T00:46:23;101162.03;;;20.39
78225;BMP280;67498;53.650;10.090;2023-09-12T00:48:49;101151.31;;;20.34
78225;BMP280;67498;53.650;10.090;2023-09-12T00:51:15;101158.38;;;20.37
78225;BMP280;67498;53.650;10.090;2023-09-12T00:53:42;101145.75;;;20.32
78225;BMP280;67498;53.650;10.090;2023-09-12T00:56:08;101153.97;;;20.34
78225;BMP280;67498;53.650;10.090;2023-09-12T00:58:33;101156.78;;;20.30
78225;BMP280;67498;53.650;10.090;2023-09-12T01:00:58;101159.72;;;20.32
78225;BMP280;67498;53.650;10.090;2023-09-12T01:03:24;101149.03;;;20.26
78225;BMP280;67498;53.650;10.090;2023-09-12T01:05:50;101159.19;;;20.28
78225;BMP280;67498;53.650;10.090;2023-09-12T01:08:16;101143.41;;;20.24
78225;BMP280;67498;53.650;10.090;2023-09-12T01:10:41;101145.19;;;20.27
78225;BMP280;67498;53.650;10.090;2023-09-12T01:13:12;101143.72;;;20.26
78225;BMP280;67498;53.650;10.090;2023-09-12T01:15:37;101138.84;;;20.25
78225;BMP280;67498;53.650;10.090;2023-09-12T01:18:03;101127.59;;;20.15
78225;BMP280;67498;53.650;10.090;2023-09-12T01:20:31;101129.78;;;20.17
78225;BMP280;67498;53.650;10.090;2023-09-12T01:28:29;101117.47;;;20.14
78225;BMP280;67498;53.650;10.090;2023-09-12T01:30:58;101109.22;;;20.12
78225;BMP280;67498;53.650;10.090;2023-09-12T01:33:23;101104.81;;;20.09
78225;BMP280;67498;53.650;10.090;2023-09-12T01:35:49;101101.41;;;20.08
78225;BMP280;67498;53.650;10.090;2023-09-12T01:38:14;101102.16;;;20.09
78225;BMP280;67498;53.650;10.090;2023-09-12T01:40:48;101096.84;;;20.09
78225;BMP280;67498;53.650;10.090;2023-09-12T01:43:16;101093.94;;;20.07
78225;BMP280;67498;53.650;10.090;2023-09-12T01:45:43;101071.16;;;20.00
78225;BMP280;67498;53.650;10.090;2023-09-12T01:48:09;101091.19;;;20.01
78225;BMP280;67498;53.650;10.090;2023-09-12T01:50:36;101077.09;;;19.95
78225;BMP280;67498;53.650;10.090;2023-09-12T01:53:02;101074.44;;;19.95
78225;BMP280;67498;53.650;10.090;2023-09-12T01:55:28;101069.03;;;19.89
78225;BMP280;67498;53.650;10.090;2023-09-12T01:57:53;101072.31;;;19.99
78225;BMP280;67498;53.650;10.090;2023-09-12T02:00:18;101058.44;;;19.89
78225;BMP280;67498;53.650;10.090;2023-09-12T02:02:45;101061.34;;;19.91
78225;BMP280;67498;53.650;10.090;2023-09-12T02:05:16;101077.25;;;19.91
78225;BMP280;67498;53.650;10.090;2023-09-12T02:07:45;101097.09;;;19.96
78225;BMP280;67498;53.650;10.090;2023-09-12T02:10:11;101108.00;;;19.98
78225;BMP280;67498;53.650;10.090;2023-09-12T02:12:36;101126.84;;;20.00
78225;BMP280;67498;53.650;10.090;2023-09-12T02:15:02;101133.59;;;20.01
78225;BMP280;67498;53.650;10.090;2023-09-12T02:17:27;101135.50;;;20.00
78225;BMP280;67498;53.650;10.090;2023-09-12T02:19:52;101134.78;;;20.00
78225;BMP280;67498;53.650;10.090;2023-09-12T02:22:18;101136.25;;;20.01
78225;BMP280;67498;53.650;10.090;2023-09-12T02:24:43;101134.22;;;19.96
78225;BMP280;67498;53.650;10.090;2023-09-12T02:27:09;101143.34;;;19.95
78225;BMP280;67498;53.650;10.090;2023-09-12T02:29:34;101159.06;;;19.98
78225;BMP280;67498;53.650;10.090;2023-09-12T02:31:59;101134.22;;;19.96
78225;BMP280;67498;53.650;10.090;2023-09-12T02:34:25;101142.16;;;19.96
78225;BMP280;67498;53.650;10.090;2023-09-12T02:36:50;101149.38;;;19.95
78225;BMP280;67498;53.650;10.090;2023-09-12T02:39:15;101158.25;;;19.92
78225;BMP280;67498;53.650;10.090;2023-09-12T02:41:41;101145.19;;;19.89
78225;BMP280;67498;53.650;10.090;2023-09-12T02:44:06;101151.78;;;19.93
78225;BMP280;67498;53.650;10.090;2023-09-12T02:46:32;101154.69;;;19.95
78225;BMP280;67498;53.650;10.090;2023-09-12T02:48:57;101158.50;;;19.94
78225;BMP280;67498;53.650;10.090;2023-09-12T02:51:22;101171.06;;;19.94
78225;BMP280;67498;53.650;10.090;2023-09-12T02:53:49;101160.63;;;19.90
78225;BMP280;67498;53.650;10.090;2023-09-12T02:56:15;101172.06;;;19.96
78225;BMP280;67498;53.650;10.090;2023-09-12T02:58:40;101166.03;;;19.96
78225;BMP280;67498;53.650;10.090;2023-09-12T03:01:05;101170.91;;;19.97
78225;BMP280;67498;53.650;10.090;2023-09-12T03:03:31;101165.75;;;19.94
78225;BMP280;67498;53.650;10.090;2023-09-12T03:06:00;101167.53;;;19.97
78225;BMP280;67498;53.650;10.090;2023-09-12T03:08:27;101182.03;;;20.01
78225;BMP280;67498;53.650;10.090;2023-09-12T03:10:54;101179.59;;;19.98
78225;BMP280;67498;53.650;10.090;2023-09-12T03:13:20;101184.44;;;19.99
78225;BMP280;67498;53.650;10.090;2023-09-12T03:15:45;101183.25;;;20.00
78225;BMP280;67498;53.650;10.090;2023-09-12T03:18:10;101177.50;;;20.02
78225;BMP280;67498;53.650;10.090;2023-09-12T03:20:38;101164.69;;;20.00
78225;BMP280;67498;53.650;10.090;2023-09-12T03:23:03;101181.31;;;20.01
78225;BMP280;67498;53.650;10.090;2023-09-12T03:25:28;101184.97;;;20.04
78225;BMP280;67498;53.650;10.090;2023-09-12T03:27:54;101163.50;;;20.01
78225;BMP280;67498;53.650;10.090;2023-09-12T03:30:20;101176.47;;;19.99
78225;BMP280;67498;53.650;10.090;2023-09-12T03:32:45;101187.34;;;20.01
78225;BMP280;67498;53.650;10.090;2023-09-12T03:35:10;101166.03;;;19.96
78225;BMP280;67498;53.650;10.090;2023-09-12T03:37:36;101168.25;;;19.97
78225;BMP280;67498;53.650;10.090;2023-09-12T03:40:06;101163.69;;;19.98
78225;BMP280;67498;53.650;10.090;2023-09-12T03:42:32;101163.38;;;19.96
78225;BMP280;67498;53.650;10.090;2023-09-12T03:44:57;101170.31;;;19.93
78225;BMP280;67498;53.650;10.090;2023-09-12T03:47:23;101180.94;;;19.93
78225;BMP280;67498;53.650;10.090;2023-09-12T03:49:48;101176.69;;;19.87
78225;BMP280;67498;53.650;10.090;2023-09-12T03:52:13;101187.44;;;19.92
78225;BMP280;67498;53.650;10.090;2023-09-12T03:54:38;101169.31;;;19.91
78225;BMP280;67498;53.650;10.090;2023-09-12T03:57:04;101163.00;;;19.88
78225;BMP280;67498;53.650;10.090;2023-09-12T03:59:29;101165.06;;;19.84
78225;BMP280;67498;53.650;10.090;2023-09-12T04:01:54;101156.81;;;19.82
78225;BMP280;67498;53.650;10.090;2023-09-12T04:04:19;101170.38;;;19.84
78225;BMP280;67498;53.650;10.090;2023-09-12T04:06:45;101178.78;;;19.83
78225;BMP280;67498;53.650;10.090;2023-09-12T04:09:10;101166.88;;;19.78
78225;BMP280;67498;53.650;10.090;2023-09-12T04:11:36;101160.41;;;19.79
78225;BMP280;67498;53.650;10.090;2023-09-12T04:14:01;101159.38;;;19.77
78225;BMP280;67498;53.650;10.090;2023-09-12T04:16:26;101155.88;;;19.70
78225;BMP280;67498;53.650;10.090;2023-09-12T04:18:51;101155.13;;;19.70
78225;BMP280;67498;53.650;10.090;2023-09-12T04:21:17;101147.03;;;19.73
78225;BMP280;67498;53.650;10.090;2023-09-12T04:23:42;101133.22;;;19.69
78225;BMP280;67498;53.650;10.090;2023-09-12T04:26:07;101112.00;;;19.69
78225;BMP280;67498;53.650;10.090;2023-09-12T04:28:32;101113.66;;;19.67
78225;BMP280;67498;53.650;10.090;2023-09-12T04:31:02;101129.38;;;19.70
78225;BMP280;67498;53.650;10.090;2023-09-12T04:33:28;101127.63;;;19.67
78225;BMP280;67498;53.650;10.090;2023-09-12T04:35:53;101128.63;;;19.70
78225;BMP280;67498;53.650;10.090;2023-09-12T04:38:18;101131.28;;;19.70
78225;BMP280;67498;53.650;10.090;2023-09-12T04:40:56;101121.31;;;19.65
78225;BMP280;67498;53.650;10.090;2023-09-12T04:43:21;101128.63;;;19.70
78225;BMP280;67498;53.650;10.090;2023-09-12T04:45:46;101133.22;;;19.69
78225;BMP280;67498;53.650;10.090;2023-09-12T04:48:13;101119.69;;;19.67
78225;BMP280;67498;53.650;10.090;2023-09-12T04:50:42;101113.34;;;19.65
78225;BMP280;67498;53.650;10.090;2023-09-12T04:53:07;101121.31;;;19.65
78225;BMP280;67498;53.650;10.090;2023-09-12T04:55:35;101115.72;;;19.63
78225;BMP280;67498;53.650;10.090;2023-09-12T04:58:00;101114.53;;;19.64
78225;BMP280;67498;53.650;10.090;2023-09-12T05:00:26;101111.78;;;19.58
78225;BMP280;67498;53.650;10.090;2023-09-12T05:02:51;101116.19;;;19.61
78225;BMP280;67498;53.650;10.090;2023-09-12T05:05:16;101119.56;;;19.62
78225;BMP280;67498;53.650;10.090;2023-09-12T05:07:42;101117.09;;;19.58
78225;BMP280;67498;53.650;10.090;2023-09-12T05:10:07;101118.84;;;19.61
78225;BMP280;67498;53.650;10.090;2023-09-12T05:12:32;101116.06;;;19.56
78225;BMP280;67498;53.650;10.090;2023-09-12T05:14:58;101141.38;;;19.57
78225;BMP280;67498;53.650;10.090;2023-09-12T05:17:23;101149.44;;;19.62
78225;BMP280;67498;53.650;10.090;2023-09-12T05:19:48;101148.72;;;19.62
78225;BMP280;67498;53.650;10.090;2023-09-12T05:22:14;101151.22;;;19.56
78225;BMP280;67498;53.650;10.090;2023-09-12T05:24:39;101162.69;;;19.62
78225;BMP280;67498;53.650;10.090;2023-09-12T05:27:04;101151.53;;;19.58
78225;BMP280;67498;53.650;10.090;2023-09-12T05:29:31;101160.06;;;19.62
78225;BMP280;67498;53.650;10.090;2023-09-12T05:31:56;101158.28;;;19.59
78225;BMP280;67498;53.650;10.090;2023-09-12T05:34:21;101166.53;;;19.61
78225;BMP280;67498;53.650;10.090;2023-09-12T05:36:46;101181.69;;;19.61
78225;BMP280;67498;53.650;10.090;2023-09-12T05:39:12;101190.53;;;19.58
78225;BMP280;67498;53.650;10.090;2023-09-12T05:41:39;101193.38;;;19.54
78225;BMP280;67498;53.650;10.090;2023-09-12T05:44:04;101207.44;;;19.60
78225;BMP280;67498;53.650;10.090;2023-09-12T05:46:29;101199.38;;;19.55
78225;BMP280;67498;53.650;10.090;2023-09-12T05:48:55;101193.19;;;19.58
78225;BMP280;67498;53.650;10.090;2023-09-12T05:51:20;101189.34;;;19.59
78225;BMP280;67498;53.650;10.090;2023-09-12T05:53:45;101188.91;;;19.60
78225;BMP280;67498;53.650;10.090;2023-09-12T05:56:10;101175.22;;;19.62
78225;BMP280;67498;53.650;10.090;2023-09-12T05:58:36;101181.25;;;19.62
78225;BMP280;67498;53.650;10.090;2023-09-12T06:01:06;101183.91;;;19.62
78225;BMP280;67498;53.650;10.090;2023-09-12T06:03:31;101187.97;;;19.63
78225;BMP280;67498;53.650;10.090;2023-09-12T06:05:57;101186.97;;;19.61
78225;BMP280;67498;53.650;10.090;2023-09-12T06:08:22;101159.75;;;19.60
78225;BMP280;67498;53.650;10.090;2023-09-12T06:10:47;101156.94;;;19.64
78225;BMP280;67498;53.650;10.090;2023-09-12T06:13:14;101178.88;;;19.64
78225;BMP280;67498;53.650;10.090;2023-09-12T06:15:39;101164.44;;;19.65
78225;BMP280;67498;53.650;10.090;2023-09-12T06:18:06;101168.84;;;19.68
78225;BMP280;67498;53.650;10.090;2023-09-12T06:20:31;101157.22;;;19.66
78225;BMP280;67498;53.650;10.090;2023-09-12T06:22:56;101158.25;;;19.68
78225;BMP280;67498;53.650;10.090;2023-09-12T06:25:22;101150.56;;;19.70
78225;BMP280;67498;53.650;10.090;2023-09-12T06:27:47;101164.66;;;19.77
78225;BMP280;67498;53.650;10.090;2023-09-12T06:30:12;101156.44;;;19.74
78225;BMP280;67498;53.650;10.090;2023-09-12T06:32:38;101175.38;;;19.82
78225;BMP280;67498;53.650;10.090;2023-09-12T06:35:03;101166.25;;;19.83
78225;BMP280;67498;53.650;10.090;2023-09-12T06:37:29;101161.69;;;19.84
78225;BMP280;67498;53.650;10.090;2023-09-12T06:39:54;101181.38;;;19.92
78225;BMP280;67498;53.650;10.090;2023-09-12T06:42:19;101173.13;;;19.90
78225;BMP280;67498;53.650;10.090;2023-09-12T06:44:45;101181.50;;;19.97
78225;BMP280;67498;53.650;10.090;2023-09-12T06:47:10;101184.59;;;19.96
78225;BMP280;67498;53.650;10.090;2023-09-12T06:49:35;101187.34;;;20.01
78225;BMP280;67498;53.650;10.090;2023-09-12T06:52:03;101189.53;;;20.03
78225;BMP280;67498;53.650;10.090;2023-09-12T06:54:28;101197.50;;;20.03
78225;BMP280;67498;53.650;10.090;2023-09-12T06:56:53;101197.78;;;20.05
78225;BMP280;67498;53.650;10.090;2023-09-12T06:59:18;101205.75;;;20.05
78225;BMP280;67498;53.650;10.090;2023-09-12T07:01:44;101205.31;;;20.07
78225;BMP280;67498;53.650;10.090;2023-09-12T07:04:10;101208.97;;;20.09
78225;BMP280;67498;53.650;10.090;2023-09-12T07:06:35;101211.16;;;20.11
78225;BMP280;67498;53.650;10.090;2023-09-12T07:09:00;101210.44;;;20.10
78225;BMP280;67498;53.650;10.090;2023-09-12T07:11:25;101198.09;;;20.07
78225;BMP280;67498;53.650;10.090;2023-09-12T07:13:51;101198.19;;;20.13
78225;BMP280;67498;53.650;10.090;2023-09-12T07:16:16;101198.47;;;20.15
78225;BMP280;67498;53.650;10.090;2023-09-12T07:18:41;101200.66;;;20.16
78225;BMP280;67498;53.650;10.090;2023-09-12T07:21:07;101193.91;;;20.15
78225;BMP280;67498;53.650;10.090;2023-09-12T07:23:33;101194.91;;;20.18
78225;BMP280;67498;53.650;10.090;2023-09-12T07:25:58;101197.84;;;20.20
78225;BMP280;67498;53.650;10.090;2023-09-12T07:28:25;101193.13;;;20.24
78225;BMP280;67498;53.650;10.090;2023-09-12T07:30:50;101188.97;;;20.23
78225;BMP280;67498;53.650;10.090;2023-09-12T07:33:15;101211.03;;;20.29
78225;BMP280;67498;53.650;10.090;2023-09-12T07:35:41;101199.13;;;20.24
78225;BMP280;67498;53.650;10.090;2023-09-12T07:38:06;101209.41;;;20.32
78225;BMP280;67498;53.650;10.090;2023-09-12T07:40:31;101205.09;;;20.34
78225;BMP280;67498;53.650;10.090;2023-09-12T07:42:56;101202.75;;;20.36
78225;BMP280;67498;53.650;10.090;2023-09-12T07:45:22;101199.16;;;20.39
78225;BMP280;67498;53.650;10.090;2023-09-12T07:47:47;101193.13;;;20.39
78225;BMP280;67498;53.650;10.090;2023-09-12T07:50:13;101183.63;;;20.47
78225;BMP280;67498;53.650;10.090;2023-09-12T07:52:39;101178.50;;;20.43
78225;BMP280;67498;53.650;10.090;2023-09-12T07:55:04;101180.53;;;20.48
78225;BMP280;67498;53.650;10.090;2023-09-12T07:57:30;101183.38;;;20.45
78225;BMP280;67498;53.650;10.090;2023-09-12T07:59:56;101189.22;;;20.49
78225;BMP280;67498;53.650;10.090;2023-09-12T08:02:22;101197.56;;;20.57
78225;BMP280;67498;53.650;10.090;2023-09-12T08:04:49;101195.34;;;20.55
78225;BMP280;67498;53.650;10.090;2023-09-12T08:07:15;101207.56;;;20.62
78225;BMP280;67498;53.650;10.090;2023-09-12T08:09:53;101204.28;;;20.67
78225;BMP280;67498;53.650;10.090;2023-09-12T08:12:20;101198.22;;;20.66
78225;BMP280;67498;53.650;10.090;2023-09-12T08:14:46;101198.22;;;20.66
78225;BMP280;67498;53.650;10.090;2023-09-12T08:17:12;101206.09;;;20.75
78225;BMP280;67498;53.650;10.090;2023-09-12T08:19:38;101220.03;;;20.85
78225;BMP280;67498;53.650;10.090;2023-09-12T08:22:05;101227.34;;;20.90
78225;BMP280;67498;53.650;10.090;2023-09-12T08:24:30;101233.94;;;20.95
78225;BMP280;67498;53.650;10.090;2023-09-12T08:26:56;101235.84;;;21.09
78225;BMP280;67498;53.650;10.090;2023-09-12T08:29:21;101240.81;;;21.16
78225;BMP280;67498;53.650;10.090;2023-09-12T08:31:46;101245.63;;;21.18
78225;BMP280;67498;53.650;10.090;2023-09-12T08:34:14;101246.84;;;21.17
78225;BMP280;67498;53.650;10.090;2023-09-12T08:36:39;101249.94;;;21.15
78225;BMP280;67498;53.650;10.090;2023-09-12T08:39:05;101254.81;;;21.17
78225;BMP280;67498;53.650;10.090;2023-09-12T08:41:33;101241.34;;;21.20
78225;BMP280;67498;53.650;10.090;2023-09-12T08:43:59;101226.56;;;21.34
78225;BMP280;67498;53.650;10.090;2023-09-12T08:46:25;101221.81;;;21.58
78225;BMP280;67498;53.650;10.090;2023-09-12T08:48:51;101229.31;;;21.75
78225;BMP280;67498;53.650;10.090;2023-09-12T08:51:17;101233.56;;;21.87
78225;BMP280;67498;53.650;10.090;2023-09-12T08:53:42;101250.41;;;21.99
78225;BMP280;67498;53.650;10.090;2023-09-12T08:56:09;101251.72;;;22.09
78225;BMP280;67498;53.650;10.090;2023-09-12T08:58:35;101246.09;;;22.22
78225;BMP280;67498;53.650;10.090;2023-09-12T09:01:01;101246.00;;;22.36
78225;BMP280;67498;53.650;10.090;2023-09-12T09:03:28;101250.19;;;22.43
78225;BMP280;67498;53.650;10.090;2023-09-12T09:05:54;101253.56;;;22.44
78225;BMP280;67498;53.650;10.090;2023-09-12T09:08:21;101253.03;;;22.39
78225;BMP280;67498;53.650;10.090;2023-09-12T09:10:59;101252.53;;;22.35
78225;BMP280;67498;53.650;10.090;2023-09-12T09:13:27;101250.72;;;22.27
78225;BMP280;67498;53.650;10.090;2023-09-12T09:16:09;101248.91;;;22.18
78225;BMP280;67498;53.650;10.090;2023-09-12T09:18:59;101259.53;;;22.12
78225;BMP280;67498;53.650;10.090;2023-09-12T09:21:26;101250.03;;;22.06
78225;BMP280;67498;53.650;10.090;2023-09-12T09:23:53;101244.63;;;22.00
78225;BMP280;67498;53.650;10.090;2023-09-12T09:26:19;101251.41;;;22.01
78225;BMP280;67498;53.650;10.090;2023-09-12T09:28:45;101252.31;;;21.98
78225;BMP280;67498;53.650;10.090;2023-09-12T09:31:13;101256.72;;;22.01
78225;BMP280;67498;53.650;10.090;2023-09-12T09:33:40;101252.13;;;22.02
78225;BMP280;67498;53.650;10.090;2023-09-12T09:36:07;101255.53;;;22.02
78225;BMP280;67498;53.650;10.090;2023-09-12T09:38:35;101260.72;;;22.11
78225;BMP280;67498;53.650;10.090;2023-09-12T09:41:04;101256.59;;;22.10
78225;BMP280;67498;53.650;10.090;2023-09-12T09:43:31;101253.25;;;22.16
78225;BMP280;67498;53.650;10.090;2023-09-12T09:45:57;101259.53;;;22.12
78225;BMP280;67498;53.650;10.090;2023-09-12T09:48:24;101258.53;;;22.10
78225;BMP280;67498;53.650;10.090;2023-09-12T09:50:53;101262.84;;;22.07
78225;BMP280;67498;53.650;10.090;2023-09-12T09:53:31;101260.66;;;22.06
78225;BMP280;67498;53.650;10.090;2023-09-12T09:56:11;101256.53;;;22.05
78225;BMP280;67498;53.650;10.090;2023-09-12T09:58:47;101258.13;;;22.17
78225;BMP280;67498;53.650;10.090;2023-09-12T10:01:17;101256.00;;;22.21
78225;BMP280;67498;53.650;10.090;2023-09-12T10:03:45;101259.00;;;22.29
78225;BMP280;67498;53.650;10.090;2023-09-12T10:06:10;101266.16;;;22.43
78225;BMP280;67498;53.650;10.090;2023-09-12T10:08:38;101273.47;;;22.48
78225;BMP280;67498;53.650;10.090;2023-09-12T10:11:05;101278.78;;;22.48
78225;BMP280;67498;53.650;10.090;2023-09-12T10:13:32;101289.91;;;22.47
78225;BMP280;67498;53.650;10.090;2023-09-12T10:15:59;101283.53;;;22.38
78225;BMP280;67498;53.650;10.090;2023-09-12T10:18:28;101282.44;;;22.30
78225;BMP280;67498;53.650;10.090;2023-09-12T10:21:00;101278.19;;;22.18
78225;BMP280;67498;53.650;10.090;2023-09-12T10:23:41;101276.03;;;22.17
78225;BMP280;67498;53.650;10.090;2023-09-12T10:26:12;101269.34;;;22.06
78225;BMP280;67498;53.650;10.090;2023-09-12T10:28:41;101281.47;;;22.07
78225;BMP280;67498;53.650;10.090;2023-09-12T10:31:09;101273.97;;;22.06
78225;BMP280;67498;53.650;10.090;2023-09-12T10:33:35;101274.16;;;22.02
78225;BMP280;67498;53.650;10.090;2023-09-12T10:36:03;101276.16;;;22.07
78225;BMP280;67498;53.650;10.090;2023-09-12T10:38:40;101271.84;;;22.10
78225;BMP280;67498;53.650;10.090;2023-09-12T10:41:08;101274.03;;;22.11
78225;BMP280;67498;53.650;10.090;2023-09-12T10:43:35;101266.03;;;22.11
78225;BMP280;67498;53.650;10.090;2023-09-12T10:46:02;101265.78;;;22.09
78225;BMP280;67498;53.650;10.090;2023-09-12T10:48:29;101274.75;;;22.12
78225;BMP280;67498;53.650;10.090;2023-09-12T10:50:57;101266.53;;;22.10
78225;BMP280;67498;53.650;10.090;2023-09-12T10:53:26;101259.94;;;22.05
78225;BMP280;67498;53.650;10.090;2023-09-12T10:55:58;101254.53;;;22.00
78225;BMP280;67498;53.650;10.090;2023-09-12T10:58:24;101264.19;;;21.97
78225;BMP280;67498;53.650;10.090;2023-09-12T11:01:21;101270.69;;;21.96
78225;BMP280;67498;53.650;10.090;2023-09-12T11:03:47;101273.56;;;21.93
78225;BMP280;67498;53.650;10.090;2023-09-12T11:06:23;101270.78;;;21.87
78225;BMP280;67498;53.650;10.090;2023-09-12T11:11:41;101268.09;;;21.81
78225;BMP280;67498;53.650;10.090;2023-09-12T11:14:08;101265.63;;;21.78
78225;BMP280;67498;53.650;10.090;2023-09-12T11:16:33;101263.72;;;21.78
78225;BMP280;67498;53.650;10.090;2023-09-12T11:19:19;101263.59;;;21.73
78225;BMP280;67498;53.650;10.090;2023-09-12T11:21:47;101276.50;;;21.80
78225;BMP280;67498;53.650;10.090;2023-09-12T11:24:13;101275.53;;;21.77
78225;BMP280;67498;53.650;10.090;2023-09-12T11:27:01;101270.94;;;21.78
78225;BMP280;67498;53.650;10.090;2023-09-12T11:29:38;101262.63;;;21.70
78225;BMP280;67498;53.650;10.090;2023-09-12T11:32:04;101261.41;;;21.71
78225;BMP280;67498;53.650;10.090;2023-09-12T11:34:36;101262.16;;;21.72
78225;BMP280;67498;53.650;10.090;2023-09-12T11:37:02;101261.16;;;21.69
78225;BMP280;67498;53.650;10.090;2023-09-12T11:39:31;101266.75;;;21.71
78225;BMP280;67498;53.650;10.090;2023-09-12T11:41:58;101259.50;;;21.72
78225;BMP280;67498;53.650;10.090;2023-09-12T11:44:24;101271.41;;;21.76
78225;BMP280;67498;53.650;10.090;2023-09-12T11:46:51;101266.09;;;21.76
78225;BMP280;67498;53.650;10.090;2023-09-12T11:49:17;101268.53;;;21.80
78225;BMP280;67498;53.650;10.090;2023-09-12T11:51:53;101264.88;;;21.77
78225;BMP280;67498;53.650;10.090;2023-09-12T11:54:20;101270.03;;;21.81
78225;BMP280;67498;53.650;10.090;2023-09-12T11:56:47;101259.81;;;21.79
78225;BMP280;67498;53.650;10.090;2023-09-12T11:59:14;101267.06;;;21.79
78225;BMP280;67498;53.650;10.090;2023-09-12T12:01:39;101269.81;;;21.84
78225;BMP280;67498;53.650;10.090;2023-09-12T12:04:05;101263.03;;;21.83
78225;BMP280;67498;53.650;10.090;2023-09-12T12:06:32;101263.94;;;21.80
78225;BMP280;67498;53.650;10.090;2023-09-12T12:08:58;101260.16;;;21.87
78225;BMP280;67498;53.650;10.090;2023-09-12T12:11:27;101263.56;;;21.87
78225;BMP280;67498;53.650;10.090;2023-09-12T12:13:53;101272.16;;;21.97
78225;BMP280;67498;53.650;10.090;2023-09-12T12:16:18;101267.09;;;21.99
78225;BMP280;67498;53.650;10.090;2023-09-12T12:18:44;101252.78;;;21.97
78225;BMP280;67498;53.650;10.090;2023-09-12T12:21:09;101266.09;;;21.97
78225;BMP280;67498;53.650;10.090;2023-09-12T12:23:34;101255.16;;;21.95
78225;BMP280;67498;53.650;10.090;2023-09-12T12:26:05;101234.78;;;21.86
78225;BMP280;67498;53.650;10.090;2023-09-12T12:28:31;101236.03;;;21.91
78225;BMP280;67498;53.650;10.090;2023-09-12T12:30:56;101241.66;;;21.93
78225;BMP280;67498;53.650;10.090;2023-09-12T12:33:21;101238.22;;;21.92
78225;BMP280;67498;53.650;10.090;2023-09-12T12:35:47;101240.97;;;21.98
78225;BMP280;67498;53.650;10.090;2023-09-12T12:38:12;101221.81;;;21.94
78225;BMP280;67498;53.650;10.090;2023-09-12T12:40:38;101221.88;;;21.99
78225;BMP280;67498;53.650;10.090;2023-09-12T12:43:16;101204.44;;;21.98
78225;BMP280;67498;53.650;10.090;2023-09-12T12:45:52;101198.69;;;22.00
78225;BMP280;67498;53.650;10.090;2023-09-12T12:48:32;101184.63;;;21.99
78225;BMP280;67498;53.650;10.090;2023-09-12T12:50:58;101178.19;;;22.06
78225;BMP280;67498;53.650;10.090;2023-09-12T12:53:37;101177.25;;;22.09
78225;BMP280;67498;53.650;10.090;2023-09-12T12:56:03;101178.75;;;22.16
78225;BMP280;67498;53.650;10.090;2023-09-12T12:58:28;101179.25;;;22.14
78225;BMP280;67498;53.650;10.090;2023-09-12T13:00:53;101178.09;;;22.21
78225;BMP280;67498;53.650;10.090;2023-09-12T13:03:19;101176.84;;;22.16
78225;BMP280;67498;53.650;10.090;2023-09-12T13:05:44;101191.47;;;22.26
78225;BMP280;67498;53.650;10.090;2023-09-12T13:08:10;101182.28;;;22.27
78225;BMP280;67498;53.650;10.090;2023-09-12T13:10:35;101177.16;;;22.24
78225;BMP280;67498;53.650;10.090;2023-09-12T13:13:02;101183.28;;;22.30
78225;BMP280;67498;53.650;10.090;2023-09-12T13:15:29;101182.81;;;22.31
78225;BMP280;67498;53.650;10.090;2023-09-12T13:17:54;101182.56;;;22.29
78225;BMP280;67498;53.650;10.090;2023-09-12T13:20:20;101188.31;;;22.28
78225;BMP280;67498;53.650;10.090;2023-09-12T13:22:45;101190.97;;;22.28
78225;BMP280;67498;53.650;10.090;2023-09-12T13:25:11;101185.34;;;22.20
78225;BMP280;67498;53.650;10.090;2023-09-12T13:27:36;101188.59;;;22.30
78225;BMP280;67498;53.650;10.090;2023-09-12T13:30:02;101193.31;;;22.40
78225;BMP280;67498;53.650;10.090;2023-09-12T13:32:28;101193.34;;;22.46
78225;BMP280;67498;53.650;10.090;2023-09-12T13:34:54;101201.38;;;22.52
78225;BMP280;67498;53.650;10.090;2023-09-12T13:37:19;101191.69;;;22.49
78225;BMP280;67498;53.650;10.090;2023-09-12T13:39:46;101182.91;;;22.43
78225;BMP280;67498;53.650;10.090;2023-09-12T13:42:14;101194.59;;;22.51
78225;BMP280;67498;53.650;10.090;2023-09-12T13:44:43;101189.03;;;22.49
78225;BMP280;67498;53.650;10.090;2023-09-12T13:47:08;101196.59;;;22.56
78225;BMP280;67498;53.650;10.090;2023-09-12T13:49:33;101185.47;;;22.57